createdAt,value
2023-01-28T00:00:59.894Z,266.32
2023-01-28T00:04:05.825Z,265.62
2023-01-28T00:07:12.420Z,261.65
2023-01-28T00:10:19.378Z,249.95
2023-01-28T00:13:25.997Z,251.78
2023-01-28T00:16:34.754Z,259.92
2023-01-28T00:19:41.323Z,275.94
2023-01-28T00:22:52.260Z,336.59
2023-01-28T00:26:02.185Z,291.21
2023-01-28T00:29:08.181Z,266.67
2023-01-28T00:32:19.160Z,252.67
2023-01-28T00:35:25.097Z,261.01
2023-01-28T00:38:32.490Z,276.04
2023-01-28T00:41:38.269Z,275.81
2023-01-28T00:44:44.898Z,264.47
2023-01-28T00:47:53.285Z,256.85
2023-01-28T00:51:00.004Z,244.56
2023-01-28T00:54:06.208Z,225.88
2023-01-28T00:57:13.424Z,224.44
2023-01-28T01:00:22.028Z,220.36
2023-01-28T01:03:31.485Z,211.51
2023-01-28T01:06:43.755Z,214.55
2023-01-28T01:09:52.715Z,215.36
2023-01-28T01:12:59.360Z,218.21
2023-01-28T01:16:09.909Z,211.29
2023-01-28T01:19:18.329Z,206.25
2023-01-28T01:22:24.943Z,224.92
2023-01-28T01:25:30.917Z,219.82
2023-01-28T01:28:37.798Z,215.50
2023-01-28T01:31:43.735Z,215.04
2023-01-28T01:34:57.680Z,211.09
2023-01-28T01:38:10.868Z,208.82
2023-01-28T01:41:30.379Z,210.49
2023-01-28T01:45:04.795Z,203.00
2023-01-28T01:48:24.272Z,208.58
2023-01-28T01:51:39.199Z,199.82
2023-01-28T01:54:54.196Z,194.65
2023-01-28T01:58:08.390Z,186.08
2023-01-28T02:01:16.668Z,186.29
2023-01-28T02:04:30.012Z,182.99
2023-01-28T02:07:41.657Z,178.97
2023-01-28T02:10:51.260Z,185.29
2023-01-28T02:14:22.421Z,180.47
2023-01-28T02:17:54.755Z,178.78
2023-01-28T02:21:41.989Z,175.09
2023-01-28T02:26:01.041Z,171.95
2023-01-28T02:29:24.182Z,165.33
2023-01-28T02:32:46.378Z,165.37
2023-01-28T02:36:10.451Z,162.38
2023-01-28T02:39:33.366Z,166.00
2023-01-28T02:42:43.427Z,167.24
2023-01-28T02:46:04.219Z,167.58
2023-01-28T02:49:25.446Z,176.01
2023-01-28T02:53:13.272Z,176.90
2023-01-28T02:56:33.913Z,174.57
2023-01-28T02:59:54.750Z,181.64
2023-01-28T03:03:29.318Z,175.88
2023-01-28T03:06:44.901Z,168.84
2023-01-28T03:10:04.457Z,164.33
2023-01-28T03:13:22.852Z,159.62
2023-01-28T03:16:42.281Z,164.15
2023-01-28T03:20:04.492Z,169.62
2023-01-28T03:23:32.335Z,172.50
2023-01-28T03:27:06.335Z,174.10
2023-01-28T03:30:38.616Z,178.00
2023-01-28T03:34:04.936Z,176.29
2023-01-28T03:37:15.922Z,179.35
2023-01-28T03:40:30.228Z,182.74
2023-01-28T03:43:36.910Z,180.83
2023-01-28T03:46:52.801Z,184.35
2023-01-28T03:50:08.784Z,180.13
2023-01-28T03:53:28.477Z,178.30
2023-01-28T03:56:37.586Z,186.26
2023-01-28T03:59:43.348Z,184.12
2023-01-28T04:02:50.030Z,181.86
2023-01-28T04:06:05.208Z,181.19
2023-01-28T04:09:46.874Z,192.22
2023-01-28T04:13:14.205Z,185.92
2023-01-28T04:16:25.261Z,194.02
2023-01-28T04:19:37.416Z,181.60
2023-01-28T04:22:45.825Z,184.30
2023-01-28T04:26:05.259Z,185.58
2023-01-28T04:29:12.431Z,181.95
2023-01-28T04:32:18.308Z,184.09
2023-01-28T04:35:44.836Z,179.67
2023-01-28T04:39:00.160Z,180.43
2023-01-28T04:42:37.931Z,179.91
2023-01-28T04:45:54.549Z,172.08
2023-01-28T04:49:21.825Z,172.94
2023-01-28T04:52:50.490Z,177.07
2023-01-28T04:56:06.783Z,173.30
2023-01-28T04:59:35.456Z,176.63
2023-01-28T05:02:44.070Z,173.68
2023-01-28T05:05:50.021Z,167.92
2023-01-28T05:09:02.060Z,167.01
2023-01-28T05:12:09.630Z,169.68
2023-01-28T05:15:26.497Z,175.94
2023-01-28T05:18:33.828Z,156.41
2023-01-28T05:21:48.574Z,155.42
2023-01-28T05:25:11.979Z,157.43
2023-01-28T05:28:19.006Z,159.93
2023-01-28T05:31:29.453Z,165.78
2023-01-28T05:34:38.333Z,166.18
2023-01-28T05:37:49.629Z,179.10
2023-01-28T05:40:58.971Z,176.15
2023-01-28T05:44:05.040Z,175.86
2023-01-28T05:47:32.910Z,172.14
2023-01-28T05:50:43.988Z,180.23
2023-01-28T05:53:56.337Z,174.68
2023-01-28T05:57:02.205Z,187.79
2023-01-28T06:00:12.275Z,182.60
2023-01-28T06:03:23.261Z,181.62
2023-01-28T06:06:29.971Z,196.77
2023-01-28T06:09:36.328Z,203.09
2023-01-28T06:12:43.552Z,184.92
2023-01-28T06:16:09.016Z,181.68
2023-01-28T06:19:29.155Z,181.31
2023-01-28T06:22:34.873Z,197.40
2023-01-28T06:25:41.707Z,186.52
2023-01-28T06:28:51.224Z,191.53
2023-01-28T06:31:57.844Z,198.21
2023-01-28T06:35:19.466Z,206.66
2023-01-28T06:38:28.027Z,185.35
2023-01-28T06:41:33.929Z,188.99
2023-01-28T06:44:40.513Z,195.08
2023-01-28T06:47:46.267Z,199.24
2023-01-28T06:50:56.513Z,204.55
2023-01-28T06:54:04.925Z,233.16
2023-01-28T06:57:11.468Z,230.70
2023-01-28T07:00:18.726Z,227.37
2023-01-28T07:03:25.557Z,197.70
2023-01-28T07:06:33.931Z,179.68
2023-01-28T07:09:40.594Z,183.58
2023-01-28T07:12:46.468Z,187.47
2023-01-28T07:15:53.250Z,181.75
2023-01-28T07:18:59.018Z,177.99
2023-01-28T07:22:08.210Z,178.98
2023-01-28T07:25:16.819Z,177.84
2023-01-28T07:28:24.156Z,184.18
2023-01-28T07:31:30.026Z,193.66
2023-01-28T07:34:37.831Z,188.73
2023-01-28T07:37:46.216Z,196.17
2023-01-28T07:40:52.892Z,186.32
2023-01-28T07:43:58.658Z,195.19
2023-01-28T07:47:19.771Z,221.17
2023-01-28T07:50:25.832Z,208.46
2023-01-28T07:53:35.148Z,209.14
2023-01-28T07:56:41.008Z,185.11
2023-01-28T07:59:47.567Z,198.56
2023-01-28T08:02:58.029Z,222.15
2023-01-28T08:06:04.775Z,209.89
2023-01-28T08:09:13.191Z,199.73
2023-01-28T08:12:19.786Z,206.07
2023-01-28T08:15:29.931Z,197.53
2023-01-28T08:18:36.730Z,213.34
2023-01-28T08:21:42.547Z,233.16
2023-01-28T08:24:51.717Z,199.95
2023-01-28T08:27:57.422Z,198.24
2023-01-28T08:31:04.463Z,188.69
2023-01-28T08:34:16.324Z,184.96
2023-01-28T08:37:23.039Z,204.69
2023-01-28T08:40:32.442Z,206.07
2023-01-28T08:43:39.099Z,196.06
2023-01-28T08:46:44.888Z,190.67
2023-01-28T08:49:51.495Z,201.95
2023-01-28T08:53:03.686Z,211.01
2023-01-28T08:56:14.561Z,212.73
2023-01-28T08:59:20.312Z,221.81
2023-01-28T09:02:31.784Z,210.24
2023-01-28T09:05:39.165Z,203.39
2023-01-28T09:08:45.784Z,202.63
2023-01-28T09:11:54.191Z,223.05
2023-01-28T09:15:01.264Z,200.39
2023-01-28T09:18:09.964Z,206.67
2023-01-28T09:21:16.518Z,212.84
2023-01-28T09:24:27.945Z,218.01
2023-01-28T09:27:37.297Z,228.83
2023-01-28T09:30:43.126Z,215.06
2023-01-28T09:33:59.425Z,209.42
2023-01-28T09:37:19.923Z,195.73
2023-01-28T09:40:38.564Z,192.63
2023-01-28T09:44:15.521Z,196.88
2023-01-28T09:47:32.159Z,222.26
2023-01-28T09:50:44.736Z,221.36
2023-01-28T09:54:00.712Z,215.85
2023-01-28T09:57:17.149Z,217.47
2023-01-28T10:00:34.268Z,222.97
2023-01-28T10:03:57.894Z,218.66
2023-01-28T10:07:30.710Z,202.40
2023-01-28T10:10:47.531Z,207.48
2023-01-28T10:14:12.174Z,210.00
2023-01-28T10:17:31.797Z,191.42
2023-01-28T10:20:47.290Z,202.49
2023-01-28T10:24:06.793Z,197.76
2023-01-28T10:27:26.313Z,197.50
2023-01-28T10:30:42.921Z,186.41
2023-01-28T10:33:54.323Z,181.97
2023-01-28T10:37:09.543Z,193.35
2023-01-28T10:40:22.397Z,195.82
2023-01-28T10:43:34.133Z,204.11
2023-01-28T10:46:41.246Z,184.78
2023-01-28T10:50:05.273Z,206.75
2023-01-28T10:53:11.913Z,192.46
2023-01-28T10:56:27.714Z,167.51
2023-01-28T10:59:41.929Z,179.60
2023-01-28T11:02:47.792Z,187.16
2023-01-28T11:06:00.440Z,181.59
2023-01-28T11:09:06.212Z,179.77
2023-01-28T11:12:22.680Z,167.71
2023-01-28T11:15:28.675Z,164.88
2023-01-28T11:18:42.622Z,171.85
2023-01-28T11:22:00.864Z,182.06
2023-01-28T11:25:22.947Z,179.67
2023-01-28T11:28:30.716Z,139.27
2023-01-28T11:31:47.205Z,147.29
2023-01-28T11:34:57.601Z,141.89
2023-01-28T11:38:06.785Z,152.72
2023-01-28T11:41:19.508Z,159.50
2023-01-28T11:44:30.676Z,153.65
2023-01-28T11:48:05.462Z,161.43
2023-01-28T11:51:38.337Z,169.86
2023-01-28T11:55:11.206Z,180.41
2023-01-28T11:58:33.815Z,180.58
2023-01-28T12:01:55.519Z,174.83
2023-01-28T12:05:31.661Z,176.28
2023-01-28T12:08:53.466Z,165.92
2023-01-28T12:12:31.971Z,168.83
2023-01-28T12:16:05.929Z,190.58
2023-01-28T12:19:35.311Z,203.10
2023-01-28T12:23:11.413Z,183.48
2023-01-28T12:26:30.308Z,196.82
2023-01-28T12:29:54.101Z,203.86
2023-01-28T12:33:34.453Z,194.00
2023-01-28T12:37:01.521Z,226.97
2023-01-28T12:40:45.357Z,217.38
2023-01-28T12:44:04.080Z,224.21
2023-01-28T12:47:25.346Z,214.52
2023-01-28T12:50:40.595Z,234.48
2023-01-28T12:53:58.797Z,244.64
2023-01-28T12:57:11.560Z,249.56
2023-01-28T13:00:32.008Z,246.08
2023-01-28T13:03:55.142Z,271.21
2023-01-28T13:07:09.662Z,271.90
2023-01-28T13:10:28.534Z,267.93
2023-01-28T13:13:39.819Z,271.19
2023-01-28T13:16:45.791Z,260.37
2023-01-28T13:19:55.127Z,291.84
2023-01-28T13:23:06.838Z,295.34
2023-01-28T13:26:32.016Z,286.31
2023-01-28T13:29:40.268Z,275.07
2023-01-28T13:33:00.094Z,281.00
2023-01-28T13:36:30.357Z,268.89
2023-01-28T13:39:40.352Z,263.49
2023-01-28T13:42:46.227Z,259.61
2023-01-28T13:46:03.710Z,281.27
2023-01-28T13:49:26.380Z,265.82
2023-01-28T13:52:48.530Z,279.07
2023-01-28T13:56:02.005Z,400.02
2023-01-28T13:59:47.695Z,271.03
2023-01-28T14:03:50.717Z,257.70
2023-01-28T14:07:29.791Z,278.58
2023-01-28T14:11:01.821Z,271.53
2023-01-28T14:14:44.769Z,273.98
2023-01-28T14:17:55.216Z,282.77
2023-01-28T14:21:12.501Z,291.97
2023-01-28T14:24:22.660Z,280.92
2023-01-28T14:27:45.310Z,288.00
2023-01-28T14:31:00.932Z,298.14
2023-01-28T14:34:23.005Z,308.85
2023-01-28T14:37:35.008Z,302.20
2023-01-28T14:40:44.061Z,303.15
2023-01-28T14:43:53.128Z,295.26
2023-01-28T14:47:35.453Z,298.49
2023-01-28T14:51:07.681Z,286.31
2023-01-28T14:54:49.719Z,284.92
2023-01-28T14:58:04.238Z,284.36
2023-01-28T15:01:27.127Z,283.42
2023-01-28T15:04:36.983Z,292.57
2023-01-28T15:07:49.196Z,294.57
2023-01-28T15:10:59.292Z,266.97
2023-01-28T15:14:06.582Z,282.50
2023-01-28T15:17:29.390Z,305.23
2023-01-28T15:20:37.054Z,281.43
2023-01-28T15:23:46.121Z,280.08
2023-01-28T15:26:53.625Z,287.75
2023-01-28T15:30:02.765Z,287.43
2023-01-28T15:33:18.553Z,316.46
2023-01-28T15:36:25.112Z,346.52
2023-01-28T15:39:33.407Z,374.75
2023-01-28T15:42:40.279Z,350.08
2023-01-28T15:45:51.011Z,347.69
2023-01-28T15:49:06.328Z,324.39
2023-01-28T15:52:13.510Z,336.55
2023-01-28T15:55:40.195Z,328.38
2023-01-28T15:58:47.333Z,327.52
2023-01-28T16:01:53.587Z,345.67
2023-01-28T16:05:08.435Z,355.76
2023-01-28T16:08:29.568Z,358.69
2023-01-28T16:11:45.102Z,348.50
2023-01-28T16:14:57.502Z,353.65
2023-01-28T16:18:05.446Z,366.92
2023-01-28T16:21:22.360Z,382.39
2023-01-28T16:24:32.507Z,385.90
2023-01-28T16:27:38.364Z,400.74
2023-01-28T16:30:45.088Z,403.74
2023-01-28T16:33:51.672Z,414.13
2023-01-28T16:37:13.349Z,428.04
2023-01-28T16:40:27.871Z,434.13
2023-01-28T16:43:44.687Z,423.92
2023-01-28T16:46:50.702Z,411.40
2023-01-28T16:49:57.587Z,384.15
2023-01-28T16:53:06.156Z,409.96
2023-01-28T16:56:30.704Z,413.05
2023-01-28T16:59:42.211Z,410.63
2023-01-28T17:02:49.122Z,406.53
2023-01-28T17:05:55.081Z,410.34
2023-01-28T17:09:06.578Z,424.95
2023-01-28T17:12:12.441Z,428.33
2023-01-28T17:15:19.767Z,384.90
2023-01-28T17:18:26.116Z,425.92
2023-01-28T17:21:36.446Z,472.61
2023-01-28T17:24:44.865Z,430.30
2023-01-28T17:27:53.023Z,460.03
2023-01-28T17:30:58.866Z,546.81
2023-01-28T17:34:07.272Z,460.88
2023-01-28T17:37:13.061Z,443.15
2023-01-28T17:40:26.175Z,433.28
2023-01-28T17:43:31.935Z,440.74
2023-01-28T17:46:38.608Z,487.01
2023-01-28T17:49:44.392Z,512.98
2023-01-28T17:52:51.189Z,542.34
2023-01-28T17:55:59.590Z,557.87
2023-01-28T17:59:17.458Z,518.14
2023-01-28T18:02:26.255Z,483.17
2023-01-28T18:05:32.989Z,465.00
2023-01-28T18:08:39.034Z,452.78
2023-01-28T18:11:48.651Z,461.49
2023-01-28T18:14:54.891Z,462.03
2023-01-28T18:18:08.598Z,445.67
2023-01-28T18:21:54.213Z,433.44
2023-01-28T18:25:00.991Z,437.25
2023-01-28T18:28:09.373Z,436.05
2023-01-28T18:31:16.145Z,432.69
2023-01-28T18:34:21.998Z,438.56
2023-01-28T18:37:28.672Z,460.79
2023-01-28T18:40:34.445Z,471.91
2023-01-28T18:43:44.167Z,494.09
2023-01-28T18:46:49.945Z,493.44
2023-01-28T18:49:56.709Z,481.16
2023-01-28T18:53:02.637Z,515.85
2023-01-28T18:56:15.620Z,558.55
2023-01-28T18:59:24.240Z,573.09
2023-01-28T19:02:31.034Z,597.88
2023-01-28T19:05:42.162Z,633.59
2023-01-28T19:08:56.455Z,629.16
2023-01-28T19:12:02.224Z,807.84
2023-01-28T19:15:15.931Z,1204.37
2023-01-28T19:18:21.978Z,674.93
2023-01-28T19:21:30.568Z,627.60
2023-01-28T19:24:36.609Z,638.99
2023-01-28T19:27:43.402Z,630.08
2023-01-28T19:30:52.886Z,641.15
2023-01-28T19:34:02.835Z,674.63
2023-01-28T19:37:08.576Z,644.75
2023-01-28T19:40:16.460Z,657.15
2023-01-28T19:43:23.817Z,635.55
2023-01-28T19:46:33.824Z,667.28
2023-01-28T19:49:40.378Z,556.23
2023-01-28T19:52:47.038Z,518.23
2023-01-28T19:55:54.753Z,553.27
2023-01-28T19:59:01.383Z,531.03
2023-01-28T20:02:09.899Z,513.74
2023-01-28T20:05:16.844Z,510.80
2023-01-28T20:08:22.833Z,495.42
2023-01-28T20:11:31.677Z,499.08
2023-01-28T20:14:40.988Z,507.91
2023-01-28T20:17:50.219Z,503.25
2023-01-28T20:20:56.937Z,487.00
2023-01-28T20:24:06.747Z,457.76
2023-01-28T20:27:12.685Z,407.18
2023-01-28T20:30:20.727Z,402.88
2023-01-28T20:33:29.217Z,376.90
2023-01-28T20:36:36.086Z,338.57
2023-01-28T20:39:42.066Z,342.12
2023-01-28T20:42:51.273Z,313.48
2023-01-28T20:45:59.006Z,325.72
2023-01-28T20:49:10.422Z,336.28
2023-01-28T20:52:17.167Z,306.80
2023-01-28T20:55:28.825Z,327.80
2023-01-28T20:58:35.406Z,367.84
2023-01-28T21:01:42.393Z,356.81
2023-01-28T21:04:50.805Z,371.86
2023-01-28T21:07:57.475Z,395.70
2023-01-28T21:11:05.356Z,385.64
2023-01-28T21:14:12.714Z,354.44
2023-01-28T21:17:18.662Z,338.71
2023-01-28T21:20:32.512Z,299.61
2023-01-28T21:23:38.430Z,306.26
2023-01-28T21:26:45.018Z,282.20
2023-01-28T21:29:50.823Z,273.86
2023-01-28T21:32:58.051Z,283.48
2023-01-28T21:36:13.047Z,269.97
2023-01-28T21:39:20.029Z,266.30
2023-01-28T21:42:25.956Z,264.68
2023-01-28T21:45:33.432Z,262.30
2023-01-28T21:48:39.370Z,249.39
2023-01-28T21:51:51.590Z,251.31
2023-01-28T21:54:59.157Z,252.21
2023-01-28T21:58:28.232Z,251.21
2023-01-28T22:01:34.345Z,217.80
2023-01-28T22:04:44.365Z,222.58
2023-01-28T22:07:52.713Z,236.19
2023-01-28T22:10:59.369Z,272.75
2023-01-28T22:14:13.025Z,253.95
2023-01-28T22:17:20.434Z,264.60
2023-01-28T22:20:27.493Z,228.95
2023-01-28T22:23:42.942Z,227.14
2023-01-28T22:26:52.810Z,239.28
2023-01-28T22:29:59.660Z,190.18
2023-01-28T22:33:05.495Z,135.75
2023-01-28T22:36:16.890Z,142.09
2023-01-28T22:39:25.325Z,118.81
2023-01-28T22:42:31.922Z,107.29
2023-01-28T22:45:37.706Z,102.77
2023-01-28T22:48:44.793Z,95.40
2023-01-28T22:51:50.624Z,97.64
2023-01-28T22:55:00.090Z,112.73
2023-01-28T22:58:09.463Z,118.09
2023-01-28T23:01:18.090Z,120.91
2023-01-28T23:04:23.859Z,139.58
2023-01-28T23:07:30.467Z,165.94
2023-01-28T23:10:39.027Z,164.89
2023-01-28T23:13:59.596Z,172.85
2023-01-28T23:17:28.176Z,163.64
2023-01-28T23:20:49.485Z,152.49
2023-01-28T23:24:13.096Z,146.69
2023-01-28T23:27:22.313Z,141.82
2023-01-28T23:30:28.127Z,150.20
2023-01-28T23:33:41.933Z,137.27
2023-01-28T23:36:48.813Z,133.43
2023-01-28T23:39:56.343Z,141.28
2023-01-28T23:43:06.287Z,143.86
2023-01-28T23:46:13.195Z,165.21
2023-01-28T23:49:31.943Z,182.81
2023-01-28T23:52:42.031Z,181.68
2023-01-28T23:55:47.810Z,182.02
2023-01-28T23:58:59.039Z,185.04
